createdAt,value
2019-05-17T00:01:10.428Z,14.00
2019-05-17T00:06:18.333Z,13.90
2019-05-17T00:11:27.361Z,13.90
2019-05-17T00:16:37.341Z,13.90
2019-05-17T00:21:43.864Z,13.90
2019-05-17T00:26:51.063Z,13.90
2019-05-17T00:31:58.273Z,13.80
2019-05-17T00:37:06.985Z,13.80
2019-05-17T00:42:17.024Z,13.80
2019-05-17T00:47:26.424Z,13.70
2019-05-17T00:52:33.188Z,13.70
2019-05-17T00:57:40.267Z,13.70
2019-05-17T01:02:47.735Z,13.60
2019-05-17T01:07:57.223Z,13.60
2019-05-17T01:13:06.542Z,13.50
2019-05-17T01:18:16.136Z,13.50
2019-05-17T01:23:23.148Z,13.40
2019-05-17T01:28:30.338Z,13.40
2019-05-17T01:33:37.727Z,13.30
2019-05-17T01:38:46.882Z,13.30
2019-05-17T01:43:53.915Z,13.30
2019-05-17T01:49:01.247Z,13.30
2019-05-17T01:54:08.558Z,13.30
2019-05-17T01:59:17.275Z,13.30
2019-05-17T02:04:26.678Z,13.20
2019-05-17T02:09:38.550Z,13.20
2019-05-17T02:14:43.255Z,13.20
2019-05-17T02:19:50.330Z,13.30
2019-05-17T02:24:57.795Z,13.30
2019-05-17T02:30:05.855Z,13.30
2019-05-17T02:35:14.601Z,13.30
2019-05-17T02:40:22.663Z,13.40
2019-05-17T02:45:32.740Z,13.40
2019-05-17T02:50:38.959Z,13.40
2019-05-17T02:55:46.161Z,13.40
2019-05-17T03:00:53.582Z,13.40
2019-05-17T03:06:03.063Z,13.50
2019-05-17T03:11:09.349Z,13.50
2019-05-17T03:16:16.420Z,13.50
2019-05-17T03:21:23.612Z,13.60
2019-05-17T03:26:32.820Z,13.60
2019-05-17T03:31:44.848Z,13.60
2019-05-17T03:36:48.840Z,13.60
2019-05-17T03:41:56.017Z,13.70
2019-05-17T03:47:03.075Z,13.70
2019-05-17T03:52:13.296Z,13.70
2019-05-17T03:57:19.148Z,13.80
2019-05-17T04:02:26.302Z,13.80
2019-05-17T04:07:33.374Z,13.80
2019-05-17T04:12:43.630Z,13.80
2019-05-17T04:17:52.687Z,13.80
2019-05-17T04:23:04.039Z,13.80
2019-05-17T04:28:13.386Z,13.80
2019-05-17T04:33:18.508Z,13.90
2019-05-17T04:38:25.599Z,13.90
2019-05-17T04:43:33.615Z,13.90
2019-05-17T04:48:43.839Z,14.00
2019-05-17T04:53:52.732Z,14.00
2019-05-17T04:59:02.913Z,14.00
2019-05-17T05:04:08.238Z,14.00
2019-05-17T05:09:16.804Z,14.00
2019-05-17T05:14:23.908Z,14.10
2019-05-17T05:19:32.903Z,14.00
2019-05-17T05:24:42.297Z,14.10
2019-05-17T05:29:49.181Z,14.10
2019-05-17T05:34:56.498Z,14.10
2019-05-17T05:40:03.695Z,14.20
2019-05-17T05:45:12.100Z,14.30
2019-05-17T05:50:21.706Z,14.30
2019-05-17T05:55:31.965Z,14.40
2019-05-17T06:00:38.196Z,14.40
2019-05-17T06:05:45.333Z,14.50
2019-05-17T06:10:53.076Z,14.50
2019-05-17T06:16:02.755Z,14.50
2019-05-17T06:21:12.113Z,14.60
2019-05-17T06:26:18.892Z,14.70
2019-05-17T06:31:37.997Z,14.70
2019-05-17T06:36:45.126Z,14.70
2019-05-17T06:41:52.328Z,14.60
2019-05-17T06:47:02.636Z,14.60
2019-05-17T06:52:11.525Z,14.60
2019-05-17T06:57:18.006Z,14.60
2019-05-17T07:02:25.106Z,14.60
2019-05-17T07:07:32.188Z,14.60
2019-05-17T07:12:54.540Z,14.70
2019-05-17T07:17:50.271Z,14.70
2019-05-17T07:22:59.901Z,14.70
2019-05-17T07:28:09.756Z,14.80
2019-05-17T07:33:19.767Z,14.80
2019-05-17T07:38:26.365Z,14.90
2019-05-17T07:43:33.760Z,14.90
2019-05-17T07:48:40.862Z,14.90
2019-05-17T07:53:49.515Z,14.90
2019-05-17T07:58:56.888Z,15.10
2019-05-17T08:04:04.356Z,15.30
2019-05-17T08:09:13.738Z,15.30
2019-05-17T08:14:30.101Z,15.30
2019-05-17T08:19:29.899Z,15.30
2019-05-17T08:24:37.060Z,15.20
2019-05-17T08:29:45.363Z,15.20
2019-05-17T08:34:53.756Z,15.20
2019-05-17T08:40:02.161Z,15.30
2019-05-17T08:45:10.533Z,15.20
2019-05-17T08:50:20.059Z,15.30
2019-05-17T08:55:27.742Z,15.20
2019-05-17T09:00:35.993Z,15.20
2019-05-17T09:05:43.087Z,15.20
2019-05-17T09:10:50.715Z,15.30
2019-05-17T09:16:00.037Z,15.40
2019-05-17T09:21:06.779Z,15.50
2019-05-17T09:26:13.951Z,15.60
2019-05-17T09:31:21.161Z,15.60
2019-05-17T09:36:30.271Z,15.80
2019-05-17T09:41:39.596Z,15.80
2019-05-17T09:46:45.830Z,15.80
2019-05-17T09:51:53.760Z,15.80
2019-05-17T09:57:00.992Z,16.00
2019-05-17T10:02:09.519Z,16.10
2019-05-17T10:07:16.851Z,16.10
2019-05-17T10:12:25.187Z,16.20
2019-05-17T10:17:33.660Z,16.30
2019-05-17T10:22:40.786Z,16.30
2019-05-17T10:27:49.891Z,16.10
2019-05-17T10:32:59.799Z,16.10
2019-05-17T10:38:06.212Z,16.00
2019-05-17T10:43:13.342Z,16.00
2019-05-17T10:48:21.181Z,16.00
2019-05-17T10:53:29.828Z,16.10
2019-05-17T10:58:39.744Z,16.20
2019-05-17T11:03:46.073Z,16.40
2019-05-17T11:08:53.321Z,16.40
2019-05-17T11:14:00.640Z,16.30
2019-05-17T11:19:08.842Z,16.20
2019-05-17T11:24:16.152Z,16.40
2019-05-17T11:29:23.300Z,17.00
2019-05-17T11:34:30.382Z,17.80
2019-05-17T11:39:38.013Z,18.00
2019-05-17T11:44:45.476Z,18.20
2019-05-17T11:49:52.639Z,18.30
2019-05-17T11:54:59.857Z,18.50
2019-05-17T12:00:08.012Z,18.50
2019-05-17T12:05:15.968Z,18.40
2019-05-17T12:10:25.300Z,18.70
2019-05-17T12:15:44.283Z,18.60
2019-05-17T12:20:41.674Z,18.70
2019-05-17T12:25:48.859Z,18.50
2019-05-17T12:30:55.949Z,18.40
2019-05-17T12:36:03.066Z,18.50
2019-05-17T12:41:10.251Z,19.10
2019-05-17T12:46:17.748Z,19.90
2019-05-17T12:51:26.123Z,20.50
2019-05-17T12:56:34.540Z,20.80
2019-05-17T13:01:42.920Z,20.60
2019-05-17T13:06:51.269Z,21.30
2019-05-17T13:11:58.398Z,21.20
2019-05-17T13:17:05.996Z,20.70
2019-05-17T13:22:14.360Z,20.40
2019-05-17T13:27:21.679Z,19.90
2019-05-17T13:32:29.028Z,19.50
2019-05-17T13:37:36.270Z,19.20
2019-05-17T13:42:43.820Z,18.80
2019-05-17T13:47:50.978Z,18.40
2019-05-17T13:52:58.149Z,18.20
2019-05-17T13:58:05.885Z,17.90
2019-05-17T14:03:13.285Z,17.60
2019-05-17T14:08:20.354Z,17.40
2019-05-17T14:13:27.777Z,17.10
2019-05-17T14:18:34.878Z,16.90
2019-05-17T14:23:41.998Z,16.80
2019-05-17T14:28:49.076Z,16.60
2019-05-17T14:33:56.277Z,16.50
2019-05-17T14:39:04.920Z,16.50
2019-05-17T14:44:13.159Z,16.40
2019-05-17T14:49:20.250Z,16.30
2019-05-17T14:54:27.329Z,16.20
2019-05-17T14:59:34.433Z,16.20
2019-05-17T15:04:41.541Z,16.10
2019-05-17T15:09:48.965Z,16.00
2019-05-17T15:14:56.143Z,16.00
2019-05-17T15:20:03.502Z,16.00
2019-05-17T15:25:10.884Z,16.00
2019-05-17T15:30:18.207Z,16.00
2019-05-17T15:35:25.343Z,16.00
2019-05-17T15:40:32.733Z,15.90
2019-05-17T15:45:39.893Z,15.80
2019-05-17T15:50:47.127Z,15.70
2019-05-17T15:55:54.188Z,15.70
2019-05-17T16:01:01.469Z,15.80
2019-05-17T16:06:08.536Z,15.80
2019-05-17T16:11:15.845Z,15.90
2019-05-17T16:16:22.984Z,15.90
2019-05-17T16:21:30.120Z,16.00
2019-05-17T16:26:37.725Z,16.00
2019-05-17T16:31:44.837Z,16.10
2019-05-17T16:36:52.001Z,16.10
2019-05-17T16:41:59.376Z,16.20
2019-05-17T16:47:06.785Z,16.20
2019-05-17T16:52:13.882Z,16.20
2019-05-17T16:57:21.097Z,16.10
2019-05-17T17:02:29.064Z,16.00
2019-05-17T17:07:36.153Z,16.00
2019-05-17T17:12:43.307Z,16.00
2019-05-17T17:17:50.836Z,15.90
2019-05-17T17:22:58.241Z,15.90
2019-05-17T17:28:06.329Z,15.90
2019-05-17T17:33:17.406Z,15.80
2019-05-17T17:38:23.901Z,15.80
2019-05-17T17:43:31.446Z,15.70
2019-05-17T17:48:39.634Z,15.60
2019-05-17T17:53:47.061Z,15.50
2019-05-17T17:58:54.122Z,15.40
2019-05-17T18:04:02.048Z,15.40
2019-05-17T18:09:09.245Z,15.40
2019-05-17T18:14:16.346Z,15.30
2019-05-17T18:19:23.532Z,15.20
2019-05-17T18:24:31.505Z,15.20
2019-05-17T18:29:38.628Z,15.10
2019-05-17T18:34:45.709Z,15.10
2019-05-17T18:39:53.127Z,15.00
2019-05-17T18:45:11.817Z,15.00
2019-05-17T18:50:19.584Z,14.90
2019-05-17T18:55:26.849Z,14.90
2019-05-17T19:00:34.138Z,14.90
2019-05-17T19:05:41.475Z,14.90
2019-05-17T19:10:48.652Z,14.90
2019-05-17T19:15:55.743Z,15.00
2019-05-17T19:21:02.820Z,15.00
2019-05-17T19:26:09.971Z,15.00
2019-05-17T19:31:17.126Z,15.00
2019-05-17T19:36:24.228Z,15.00
2019-05-17T19:41:31.408Z,15.00
2019-05-17T19:46:38.595Z,15.00
2019-05-17T19:51:45.841Z,15.00
2019-05-17T19:56:53.050Z,15.00
2019-05-17T20:02:00.148Z,15.00
2019-05-17T20:07:07.736Z,14.90
2019-05-17T20:12:14.832Z,14.90
2019-05-17T20:17:22.108Z,14.80
2019-05-17T20:22:29.638Z,14.80
2019-05-17T20:27:37.000Z,14.80
2019-05-17T20:32:44.329Z,14.80
2019-05-17T20:37:51.453Z,14.70
2019-05-17T20:42:58.753Z,14.70
2019-05-17T20:48:06.030Z,14.70
2019-05-17T20:53:18.825Z,14.70
2019-05-17T20:58:22.499Z,14.70
2019-05-17T21:03:29.560Z,14.70
2019-05-17T21:08:45.731Z,14.80
2019-05-17T21:13:45.584Z,14.70
2019-05-17T21:18:52.693Z,14.80
2019-05-17T21:23:59.769Z,14.80
2019-05-17T21:29:06.969Z,14.70
2019-05-17T21:34:14.169Z,14.70
2019-05-17T21:39:21.368Z,14.70
2019-05-17T21:44:28.665Z,14.70
2019-05-17T21:49:35.731Z,14.80
2019-05-17T21:54:42.816Z,14.70
2019-05-17T21:59:49.909Z,14.70
2019-05-17T22:04:57.137Z,14.70
2019-05-17T22:10:04.372Z,14.70
2019-05-17T22:15:11.486Z,14.60
2019-05-17T22:20:18.605Z,14.60
2019-05-17T22:25:25.871Z,14.60
2019-05-17T22:30:32.972Z,14.60
2019-05-17T22:35:40.079Z,14.60
2019-05-17T22:40:47.841Z,14.60
2019-05-17T22:45:54.942Z,14.60
2019-05-17T22:51:02.037Z,14.60
2019-05-17T22:56:09.346Z,14.60
2019-05-17T23:01:16.497Z,14.60
2019-05-17T23:06:23.702Z,14.60
2019-05-17T23:11:30.998Z,14.60
2019-05-17T23:16:50.567Z,14.60
2019-05-17T23:21:46.900Z,14.60
2019-05-17T23:26:54.987Z,14.60
2019-05-17T23:32:02.089Z,14.60
2019-05-17T23:37:10.497Z,14.50
2019-05-17T23:42:17.837Z,14.50
2019-05-17T23:47:25.226Z,14.50
2019-05-17T23:52:32.293Z,14.50
2019-05-17T23:57:39.586Z,14.60
